sensor_id;sensor_type;location;lat;lon;timestamp;P1;durP1;ratioP1;P2;durP2;ratioP2
11048;SDS011;5577;42.706;23.160;2023-02-15T00:01:43;41.13;;;25.17;;
11048;SDS011;5577;42.706;23.160;2023-02-15T00:04:27;39.63;;;24.33;;
11048;SDS011;5577;42.706;23.160;2023-02-15T00:07:29;40.57;;;25.27;;
11048;SDS011;5577;42.706;23.160;2023-02-15T00:10:13;43.20;;;24.47;;
11048;SDS011;5577;42.706;23.160;2023-02-15T00:12:57;40.47;;;24.63;;
11048;SDS011;5577;42.706;23.160;2023-02-15T00:15:43;44.17;;;24.77;;
11048;SDS011;5577;42.706;23.160;2023-02-15T00:18:27;42.10;;;24.40;;
11048;SDS011;5577;42.706;23.160;2023-02-15T00:21:11;40.40;;;24.50;;
11048;SDS011;5577;42.706;23.160;2023-02-15T00:23:55;40.10;;;22.47;;
11048;SDS011;5577;42.706;23.160;2023-02-15T00:26:40;43.73;;;25.87;;
11048;SDS011;5577;42.706;23.160;2023-02-15T00:29:25;42.77;;;24.43;;
11048;SDS011;5577;42.706;23.160;2023-02-15T00:32:09;41.87;;;24.07;;
11048;SDS011;5577;42.706;23.160;2023-02-15T00:34:53;44.13;;;26.60;;
11048;SDS011;5577;42.706;23.160;2023-02-15T00:37:37;41.07;;;23.97;;
11048;SDS011;5577;42.706;23.160;2023-02-15T00:40:21;47.17;;;26.03;;
11048;SDS011;5577;42.706;23.160;2023-02-15T00:43:06;41.50;;;23.33;;
11048;SDS011;5577;42.706;23.160;2023-02-15T00:45:50;40.10;;;23.60;;
11048;SDS011;5577;42.706;23.160;2023-02-15T00:48:35;43.83;;;25.80;;
11048;SDS011;5577;42.706;23.160;2023-02-15T00:51:19;39.70;;;22.97;;
11048;SDS011;5577;42.706;23.160;2023-02-15T00:54:04;40.07;;;24.30;;
11048;SDS011;5577;42.706;23.160;2023-02-15T00:56:48;43.30;;;25.03;;
11048;SDS011;5577;42.706;23.160;2023-02-15T00:59:32;46.33;;;25.00;;
11048;SDS011;5577;42.706;23.160;2023-02-15T01:02:16;43.93;;;26.17;;
11048;SDS011;5577;42.706;23.160;2023-02-15T01:05:00;40.37;;;22.70;;
11048;SDS011;5577;42.706;23.160;2023-02-15T01:07:44;41.70;;;24.70;;
11048;SDS011;5577;42.706;23.160;2023-02-15T01:10:28;43.90;;;25.30;;
11048;SDS011;5577;42.706;23.160;2023-02-15T01:13:13;47.60;;;26.63;;
11048;SDS011;5577;42.706;23.160;2023-02-15T01:15:58;43.17;;;24.17;;
11048;SDS011;5577;42.706;23.160;2023-02-15T01:18:43;42.80;;;24.60;;
11048;SDS011;5577;42.706;23.160;2023-02-15T01:21:27;40.37;;;24.37;;
11048;SDS011;5577;42.706;23.160;2023-02-15T01:24:12;44.90;;;25.27;;
11048;SDS011;5577;42.706;23.160;2023-02-15T01:26:56;41.77;;;24.20;;
11048;SDS011;5577;42.706;23.160;2023-02-15T01:29:40;44.97;;;24.80;;
11048;SDS011;5577;42.706;23.160;2023-02-15T01:32:24;43.37;;;24.63;;
11048;SDS011;5577;42.706;23.160;2023-02-15T01:35:09;40.80;;;24.30;;
11048;SDS011;5577;42.706;23.160;2023-02-15T01:37:54;41.00;;;23.60;;
11048;SDS011;5577;42.706;23.160;2023-02-15T01:40:39;42.90;;;24.90;;
11048;SDS011;5577;42.706;23.160;2023-02-15T01:43:37;41.53;;;23.00;;
11048;SDS011;5577;42.706;23.160;2023-02-15T01:46:40;51.17;;;26.70;;
11048;SDS011;5577;42.706;23.160;2023-02-15T01:49:34;44.20;;;25.30;;
11048;SDS011;5577;42.706;23.160;2023-02-15T01:52:18;34.00;;;17.53;;
11048;SDS011;5577;42.706;23.160;2023-02-15T01:55:02;39.90;;;24.80;;
11048;SDS011;5577;42.706;23.160;2023-02-15T01:57:47;38.20;;;23.50;;
11048;SDS011;5577;42.706;23.160;2023-02-15T02:00:32;43.83;;;25.43;;
11048;SDS011;5577;42.706;23.160;2023-02-15T02:03:18;43.73;;;24.07;;
11048;SDS011;5577;42.706;23.160;2023-02-15T02:06:11;41.13;;;23.67;;
11048;SDS011;5577;42.706;23.160;2023-02-15T02:08:55;41.17;;;22.20;;
11048;SDS011;5577;42.706;23.160;2023-02-15T02:11:40;37.77;;;22.57;;
11048;SDS011;5577;42.706;23.160;2023-02-15T02:14:25;40.30;;;24.13;;
11048;SDS011;5577;42.706;23.160;2023-02-15T02:17:54;42.47;;;23.63;;
11048;SDS011;5577;42.706;23.160;2023-02-15T02:23:23;35.00;;;22.63;;
11048;SDS011;5577;42.706;23.160;2023-02-15T02:38:11;36.27;;;22.37;;
11048;SDS011;5577;42.706;23.160;2023-02-15T02:41:38;35.73;;;21.97;;
11048;SDS011;5577;42.706;23.160;2023-02-15T02:44:45;37.10;;;22.43;;
11048;SDS011;5577;42.706;23.160;2023-02-15T02:47:46;36.20;;;21.80;;
11048;SDS011;5577;42.706;23.160;2023-02-15T02:50:34;33.50;;;20.63;;
11048;SDS011;5577;42.706;23.160;2023-02-15T02:53:18;35.33;;;21.60;;
11048;SDS011;5577;42.706;23.160;2023-02-15T02:56:15;40.17;;;25.77;;
11048;SDS011;5577;42.706;23.160;2023-02-15T02:59:09;33.23;;;19.73;;
11048;SDS011;5577;42.706;23.160;2023-02-15T03:02:10;36.33;;;21.43;;
11048;SDS011;5577;42.706;23.160;2023-02-15T03:05:05;38.73;;;22.13;;
11048;SDS011;5577;42.706;23.160;2023-02-15T03:07:54;35.20;;;21.90;;
11048;SDS011;5577;42.706;23.160;2023-02-15T03:10:40;33.30;;;19.77;;
11048;SDS011;5577;42.706;23.160;2023-02-15T03:13:25;39.50;;;23.77;;
11048;SDS011;5577;42.706;23.160;2023-02-15T03:16:10;36.33;;;23.33;;
11048;SDS011;5577;42.706;23.160;2023-02-15T03:19:15;35.80;;;23.10;;
11048;SDS011;5577;42.706;23.160;2023-02-15T03:22:05;33.70;;;19.90;;
11048;SDS011;5577;42.706;23.160;2023-02-15T03:25:09;33.73;;;20.57;;
11048;SDS011;5577;42.706;23.160;2023-02-15T03:27:59;35.13;;;20.57;;
11048;SDS011;5577;42.706;23.160;2023-02-15T03:30:49;39.63;;;22.73;;
11048;SDS011;5577;42.706;23.160;2023-02-15T03:33:40;34.37;;;20.60;;
11048;SDS011;5577;42.706;23.160;2023-02-15T03:36:50;37.77;;;21.67;;
11048;SDS011;5577;42.706;23.160;2023-02-15T03:39:54;35.03;;;20.60;;
11048;SDS011;5577;42.706;23.160;2023-02-15T03:42:39;32.87;;;20.60;;
11048;SDS011;5577;42.706;23.160;2023-02-15T03:45:25;33.13;;;20.20;;
11048;SDS011;5577;42.706;23.160;2023-02-15T03:48:14;33.80;;;21.07;;
11048;SDS011;5577;42.706;23.160;2023-02-15T03:51:06;36.33;;;21.93;;
11048;SDS011;5577;42.706;23.160;2023-02-15T03:54:18;33.80;;;21.73;;
11048;SDS011;5577;42.706;23.160;2023-02-15T03:57:26;37.13;;;22.87;;
11048;SDS011;5577;42.706;23.160;2023-02-15T04:00:30;35.80;;;22.13;;
11048;SDS011;5577;42.706;23.160;2023-02-15T04:03:40;37.67;;;22.43;;
11048;SDS011;5577;42.706;23.160;2023-02-15T04:06:46;33.30;;;20.63;;
11048;SDS011;5577;42.706;23.160;2023-02-15T04:09:31;36.60;;;22.87;;
11048;SDS011;5577;42.706;23.160;2023-02-15T04:12:33;36.13;;;21.90;;
11048;SDS011;5577;42.706;23.160;2023-02-15T04:15:17;35.93;;;22.23;;
11048;SDS011;5577;42.706;23.160;2023-02-15T04:18:20;34.60;;;21.03;;
11048;SDS011;5577;42.706;23.160;2023-02-15T04:21:04;39.03;;;22.70;;
11048;SDS011;5577;42.706;23.160;2023-02-15T04:24:07;37.30;;;22.00;;
11048;SDS011;5577;42.706;23.160;2023-02-15T04:27:11;32.77;;;20.20;;
11048;SDS011;5577;42.706;23.160;2023-02-15T04:29:55;35.40;;;20.93;;
11048;SDS011;5577;42.706;23.160;2023-02-15T04:32:39;36.63;;;22.07;;
11048;SDS011;5577;42.706;23.160;2023-02-15T04:35:23;36.77;;;21.90;;
11048;SDS011;5577;42.706;23.160;2023-02-15T04:38:07;38.63;;;22.10;;
11048;SDS011;5577;42.706;23.160;2023-02-15T04:40:51;37.00;;;21.50;;
11048;SDS011;5577;42.706;23.160;2023-02-15T04:43:36;38.13;;;22.40;;
11048;SDS011;5577;42.706;23.160;2023-02-15T04:46:20;38.50;;;23.03;;
11048;SDS011;5577;42.706;23.160;2023-02-15T04:49:03;35.97;;;21.87;;
11048;SDS011;5577;42.706;23.160;2023-02-15T04:51:47;38.40;;;22.50;;
11048;SDS011;5577;42.706;23.160;2023-02-15T04:54:31;36.97;;;23.40;;
11048;SDS011;5577;42.706;23.160;2023-02-15T04:57:15;33.60;;;20.90;;
11048;SDS011;5577;42.706;23.160;2023-02-15T04:59:59;35.60;;;21.47;;
11048;SDS011;5577;42.706;23.160;2023-02-15T05:02:43;38.97;;;23.37;;
11048;SDS011;5577;42.706;23.160;2023-02-15T05:05:27;36.10;;;23.13;;
11048;SDS011;5577;42.706;23.160;2023-02-15T05:08:11;33.80;;;21.13;;
11048;SDS011;5577;42.706;23.160;2023-02-15T05:10:55;34.20;;;20.93;;
11048;SDS011;5577;42.706;23.160;2023-02-15T05:13:39;34.73;;;22.03;;
11048;SDS011;5577;42.706;23.160;2023-02-15T05:16:23;38.17;;;23.43;;
11048;SDS011;5577;42.706;23.160;2023-02-15T05:19:07;41.53;;;23.63;;
11048;SDS011;5577;42.706;23.160;2023-02-15T05:21:51;38.93;;;24.30;;
11048;SDS011;5577;42.706;23.160;2023-02-15T05:24:35;36.30;;;21.77;;
11048;SDS011;5577;42.706;23.160;2023-02-15T05:27:38;34.00;;;20.67;;
11048;SDS011;5577;42.706;23.160;2023-02-15T05:30:41;36.40;;;20.37;;
11048;SDS011;5577;42.706;23.160;2023-02-15T05:33:25;36.27;;;21.60;;
11048;SDS011;5577;42.706;23.160;2023-02-15T05:36:09;34.77;;;22.10;;
11048;SDS011;5577;42.706;23.160;2023-02-15T05:38:54;36.87;;;21.37;;
11048;SDS011;5577;42.706;23.160;2023-02-15T05:41:39;36.67;;;21.73;;
11048;SDS011;5577;42.706;23.160;2023-02-15T05:44:23;33.60;;;20.60;;
11048;SDS011;5577;42.706;23.160;2023-02-15T05:47:07;34.80;;;21.43;;
11048;SDS011;5577;42.706;23.160;2023-02-15T05:49:51;33.73;;;20.37;;
11048;SDS011;5577;42.706;23.160;2023-02-15T05:52:35;36.47;;;21.20;;
11048;SDS011;5577;42.706;23.160;2023-02-15T05:55:20;39.03;;;21.97;;
11048;SDS011;5577;42.706;23.160;2023-02-15T05:58:04;37.97;;;21.77;;
11048;SDS011;5577;42.706;23.160;2023-02-15T06:00:48;31.93;;;18.80;;
11048;SDS011;5577;42.706;23.160;2023-02-15T06:03:32;37.33;;;21.23;;
11048;SDS011;5577;42.706;23.160;2023-02-15T06:06:16;32.47;;;20.20;;
11048;SDS011;5577;42.706;23.160;2023-02-15T06:09:00;33.57;;;20.50;;
11048;SDS011;5577;42.706;23.160;2023-02-15T06:11:44;34.97;;;21.57;;
11048;SDS011;5577;42.706;23.160;2023-02-15T06:14:29;35.70;;;21.60;;
11048;SDS011;5577;42.706;23.160;2023-02-15T06:17:13;33.50;;;20.17;;
11048;SDS011;5577;42.706;23.160;2023-02-15T06:19:57;32.30;;;19.60;;
11048;SDS011;5577;42.706;23.160;2023-02-15T06:22:41;29.57;;;18.43;;
11048;SDS011;5577;42.706;23.160;2023-02-15T06:25:25;31.20;;;18.60;;
11048;SDS011;5577;42.706;23.160;2023-02-15T06:28:09;17.67;;;9.90;;
11048;SDS011;5577;42.706;23.160;2023-02-15T06:30:54;30.53;;;18.17;;
11048;SDS011;5577;42.706;23.160;2023-02-15T06:33:37;29.10;;;18.03;;
11048;SDS011;5577;42.706;23.160;2023-02-15T06:36:22;29.27;;;17.63;;
11048;SDS011;5577;42.706;23.160;2023-02-15T06:39:06;28.93;;;18.23;;
11048;SDS011;5577;42.706;23.160;2023-02-15T06:41:50;29.03;;;17.67;;
11048;SDS011;5577;42.706;23.160;2023-02-15T06:44:34;29.27;;;17.83;;
11048;SDS011;5577;42.706;23.160;2023-02-15T06:47:18;31.83;;;18.87;;
11048;SDS011;5577;42.706;23.160;2023-02-15T06:50:03;28.33;;;18.10;;
11048;SDS011;5577;42.706;23.160;2023-02-15T06:52:48;30.83;;;17.53;;
11048;SDS011;5577;42.706;23.160;2023-02-15T06:55:32;26.47;;;17.17;;
11048;SDS011;5577;42.706;23.160;2023-02-15T06:58:16;28.60;;;18.13;;
11048;SDS011;5577;42.706;23.160;2023-02-15T07:01:00;28.87;;;18.07;;
11048;SDS011;5577;42.706;23.160;2023-02-15T07:03:44;29.60;;;17.20;;
11048;SDS011;5577;42.706;23.160;2023-02-15T07:06:32;23.47;;;16.40;;
11048;SDS011;5577;42.706;23.160;2023-02-15T07:09:17;25.77;;;16.77;;
11048;SDS011;5577;42.706;23.160;2023-02-15T07:12:01;29.47;;;18.30;;
11048;SDS011;5577;42.706;23.160;2023-02-15T07:15:05;26.17;;;16.50;;
11048;SDS011;5577;42.706;23.160;2023-02-15T07:17:49;27.20;;;17.40;;
11048;SDS011;5577;42.706;23.160;2023-02-15T07:20:34;29.47;;;17.87;;
11048;SDS011;5577;42.706;23.160;2023-02-15T07:23:19;24.90;;;15.87;;
11048;SDS011;5577;42.706;23.160;2023-02-15T07:26:03;25.50;;;15.40;;
11048;SDS011;5577;42.706;23.160;2023-02-15T07:28:48;25.87;;;16.03;;
11048;SDS011;5577;42.706;23.160;2023-02-15T07:31:32;25.47;;;15.53;;
11048;SDS011;5577;42.706;23.160;2023-02-15T07:34:16;23.10;;;14.87;;
11048;SDS011;5577;42.706;23.160;2023-02-15T07:37:00;24.27;;;15.50;;
11048;SDS011;5577;42.706;23.160;2023-02-15T07:39:44;25.43;;;16.27;;
11048;SDS011;5577;42.706;23.160;2023-02-15T07:42:30;23.73;;;15.93;;
11048;SDS011;5577;42.706;23.160;2023-02-15T07:45:14;24.10;;;15.37;;
11048;SDS011;5577;42.706;23.160;2023-02-15T07:47:58;24.80;;;15.53;;
11048;SDS011;5577;42.706;23.160;2023-02-15T07:50:44;24.47;;;16.77;;
11048;SDS011;5577;42.706;23.160;2023-02-15T07:53:28;22.07;;;14.67;;
11048;SDS011;5577;42.706;23.160;2023-02-15T07:56:13;24.00;;;13.97;;
11048;SDS011;5577;42.706;23.160;2023-02-15T07:58:58;20.87;;;14.73;;
11048;SDS011;5577;42.706;23.160;2023-02-15T08:01:47;22.13;;;13.50;;
11048;SDS011;5577;42.706;23.160;2023-02-15T08:04:31;24.67;;;14.67;;
11048;SDS011;5577;42.706;23.160;2023-02-15T08:07:15;22.50;;;15.13;;
11048;SDS011;5577;42.706;23.160;2023-02-15T08:09:58;23.97;;;15.30;;
11048;SDS011;5577;42.706;23.160;2023-02-15T08:12:43;21.87;;;14.43;;
11048;SDS011;5577;42.706;23.160;2023-02-15T08:15:26;21.77;;;13.97;;
11048;SDS011;5577;42.706;23.160;2023-02-15T08:18:10;20.53;;;14.07;;
11048;SDS011;5577;42.706;23.160;2023-02-15T08:20:54;19.60;;;13.90;;
11048;SDS011;5577;42.706;23.160;2023-02-15T08:23:38;19.10;;;11.23;;
11048;SDS011;5577;42.706;23.160;2023-02-15T08:26:23;20.63;;;13.63;;
11048;SDS011;5577;42.706;23.160;2023-02-15T08:29:08;20.33;;;13.80;;
11048;SDS011;5577;42.706;23.160;2023-02-15T08:31:53;20.17;;;13.83;;
11048;SDS011;5577;42.706;23.160;2023-02-15T08:34:42;20.10;;;13.37;;
11048;SDS011;5577;42.706;23.160;2023-02-15T08:37:25;20.70;;;13.17;;
11048;SDS011;5577;42.706;23.160;2023-02-15T08:40:09;18.07;;;13.40;;
11048;SDS011;5577;42.706;23.160;2023-02-15T08:42:56;21.13;;;13.83;;
11048;SDS011;5577;42.706;23.160;2023-02-15T08:45:41;24.67;;;16.23;;
11048;SDS011;5577;42.706;23.160;2023-02-15T08:48:25;21.33;;;15.37;;
11048;SDS011;5577;42.706;23.160;2023-02-15T08:51:10;23.00;;;15.40;;
11048;SDS011;5577;42.706;23.160;2023-02-15T08:53:57;19.10;;;13.40;;
11048;SDS011;5577;42.706;23.160;2023-02-15T08:56:43;20.80;;;14.23;;
11048;SDS011;5577;42.706;23.160;2023-02-15T08:59:28;22.47;;;14.93;;
11048;SDS011;5577;42.706;23.160;2023-02-15T09:02:11;24.30;;;15.27;;
11048;SDS011;5577;42.706;23.160;2023-02-15T09:04:55;24.43;;;15.70;;
11048;SDS011;5577;42.706;23.160;2023-02-15T09:07:39;20.73;;;12.07;;
11048;SDS011;5577;42.706;23.160;2023-02-15T09:10:23;22.30;;;14.60;;
11048;SDS011;5577;42.706;23.160;2023-02-15T09:13:07;22.07;;;15.70;;
11048;SDS011;5577;42.706;23.160;2023-02-15T09:15:51;22.33;;;15.80;;
11048;SDS011;5577;42.706;23.160;2023-02-15T09:18:43;24.33;;;15.63;;
11048;SDS011;5577;42.706;23.160;2023-02-15T09:21:27;21.53;;;15.03;;
11048;SDS011;5577;42.706;23.160;2023-02-15T09:24:13;23.60;;;15.93;;
11048;SDS011;5577;42.706;23.160;2023-02-15T09:26:59;20.97;;;14.77;;
11048;SDS011;5577;42.706;23.160;2023-02-15T09:29:43;19.43;;;14.10;;
11048;SDS011;5577;42.706;23.160;2023-02-15T09:32:27;21.60;;;14.80;;
11048;SDS011;5577;42.706;23.160;2023-02-15T09:35:11;20.17;;;15.13;;
11048;SDS011;5577;42.706;23.160;2023-02-15T09:37:55;20.77;;;14.43;;
11048;SDS011;5577;42.706;23.160;2023-02-15T09:40:41;21.20;;;15.67;;
11048;SDS011;5577;42.706;23.160;2023-02-15T09:47:06;22.47;;;15.50;;
11048;SDS011;5577;42.706;23.160;2023-02-15T09:50:20;23.20;;;15.97;;
11048;SDS011;5577;42.706;23.160;2023-02-15T10:01:59;23.17;;;16.40;;
11048;SDS011;5577;42.706;23.160;2023-02-15T10:20:55;26.63;;;17.33;;
11048;SDS011;5577;42.706;23.160;2023-02-15T10:26:46;26.80;;;18.97;;
11048;SDS011;5577;42.706;23.160;2023-02-15T10:29:38;27.50;;;19.00;;
11048;SDS011;5577;42.706;23.160;2023-02-15T10:32:28;27.87;;;18.73;;
11048;SDS011;5577;42.706;23.160;2023-02-15T10:35:22;34.03;;;21.20;;
11048;SDS011;5577;42.706;23.160;2023-02-15T10:51:18;30.83;;;21.33;;
11048;SDS011;5577;42.706;23.160;2023-02-15T10:54:06;29.17;;;19.43;;
11048;SDS011;5577;42.706;23.160;2023-02-15T10:57:23;28.57;;;18.77;;
11048;SDS011;5577;42.706;23.160;2023-02-15T11:06:21;25.33;;;17.90;;
11048;SDS011;5577;42.706;23.160;2023-02-15T11:09:10;26.70;;;18.23;;
11048;SDS011;5577;42.706;23.160;2023-02-15T11:11:56;27.43;;;18.47;;
11048;SDS011;5577;42.706;23.160;2023-02-15T11:18:09;28.20;;;20.20;;
11048;SDS011;5577;42.706;23.160;2023-02-15T11:21:20;32.93;;;20.10;;
11048;SDS011;5577;42.706;23.160;2023-02-15T11:24:14;27.30;;;19.13;;
11048;SDS011;5577;42.706;23.160;2023-02-15T11:27:24;30.13;;;19.67;;
11048;SDS011;5577;42.706;23.160;2023-02-15T11:30:36;27.83;;;18.30;;
11048;SDS011;5577;42.706;23.160;2023-02-15T11:33:31;23.13;;;17.83;;
11048;SDS011;5577;42.706;23.160;2023-02-15T11:39:09;24.47;;;17.47;;
11048;SDS011;5577;42.706;23.160;2023-02-15T11:41:56;24.93;;;18.40;;
11048;SDS011;5577;42.706;23.160;2023-02-15T11:47:42;27.37;;;21.33;;
11048;SDS011;5577;42.706;23.160;2023-02-15T11:50:27;24.77;;;19.30;;
11048;SDS011;5577;42.706;23.160;2023-02-15T11:53:16;24.70;;;18.20;;
11048;SDS011;5577;42.706;23.160;2023-02-15T11:56:15;27.17;;;20.80;;
11048;SDS011;5577;42.706;23.160;2023-02-15T11:59:04;26.93;;;19.93;;
11048;SDS011;5577;42.706;23.160;2023-02-15T12:01:55;28.57;;;20.47;;
11048;SDS011;5577;42.706;23.160;2023-02-15T12:04:40;23.50;;;18.37;;
11048;SDS011;5577;42.706;23.160;2023-02-15T12:07:43;24.80;;;18.67;;
11048;SDS011;5577;42.706;23.160;2023-02-15T12:10:33;24.00;;;17.93;;
11048;SDS011;5577;42.706;23.160;2023-02-15T12:13:21;22.83;;;18.40;;
11048;SDS011;5577;42.706;23.160;2023-02-15T12:16:06;23.87;;;18.17;;
11048;SDS011;5577;42.706;23.160;2023-02-15T12:18:56;24.90;;;18.53;;
11048;SDS011;5577;42.706;23.160;2023-02-15T12:21:43;24.27;;;18.73;;
11048;SDS011;5577;42.706;23.160;2023-02-15T12:24:28;24.43;;;19.90;;
11048;SDS011;5577;42.706;23.160;2023-02-15T12:27:20;23.20;;;18.27;;
11048;SDS011;5577;42.706;23.160;2023-02-15T12:33:07;25.30;;;19.67;;
11048;SDS011;5577;42.706;23.160;2023-02-15T12:36:06;24.83;;;19.40;;
11048;SDS011;5577;42.706;23.160;2023-02-15T12:44:38;21.93;;;17.70;;
11048;SDS011;5577;42.706;23.160;2023-02-15T12:47:35;24.23;;;19.77;;
11048;SDS011;5577;42.706;23.160;2023-02-15T12:50:23;25.40;;;19.63;;
11048;SDS011;5577;42.706;23.160;2023-02-15T12:56:04;23.13;;;19.17;;
11048;SDS011;5577;42.706;23.160;2023-02-15T12:59:03;21.03;;;18.47;;
11048;SDS011;5577;42.706;23.160;2023-02-15T13:01:48;25.00;;;20.70;;
11048;SDS011;5577;42.706;23.160;2023-02-15T13:04:46;24.30;;;19.13;;
11048;SDS011;5577;42.706;23.160;2023-02-15T13:07:34;19.33;;;17.20;;
11048;SDS011;5577;42.706;23.160;2023-02-15T13:10:28;26.83;;;23.03;;
11048;SDS011;5577;42.706;23.160;2023-02-15T13:13:34;23.17;;;19.17;;
11048;SDS011;5577;42.706;23.160;2023-02-15T13:16:40;21.33;;;18.97;;
11048;SDS011;5577;42.706;23.160;2023-02-15T13:19:29;23.70;;;20.97;;
11048;SDS011;5577;42.706;23.160;2023-02-15T13:22:41;22.23;;;19.43;;
11048;SDS011;5577;42.706;23.160;2023-02-15T13:25:37;24.10;;;20.00;;
11048;SDS011;5577;42.706;23.160;2023-02-15T13:28:47;23.40;;;20.90;;
11048;SDS011;5577;42.706;23.160;2023-02-15T13:31:37;24.07;;;20.63;;
11048;SDS011;5577;42.706;23.160;2023-02-15T13:34:28;26.03;;;21.53;;
11048;SDS011;5577;42.706;23.160;2023-02-15T13:37:20;22.10;;;18.70;;
11048;SDS011;5577;42.706;23.160;2023-02-15T13:40:15;21.47;;;19.00;;
11048;SDS011;5577;42.706;23.160;2023-02-15T13:43:04;24.43;;;20.20;;
11048;SDS011;5577;42.706;23.160;2023-02-15T13:52:17;26.50;;;21.67;;
11048;SDS011;5577;42.706;23.160;2023-02-15T13:55:26;27.90;;;20.00;;
11048;SDS011;5577;42.706;23.160;2023-02-15T14:11:06;25.93;;;20.27;;
11048;SDS011;5577;42.706;23.160;2023-02-15T14:23:06;25.77;;;19.17;;
11048;SDS011;5577;42.706;23.160;2023-02-15T14:26:30;24.23;;;19.20;;
11048;SDS011;5577;42.706;23.160;2023-02-15T14:32:49;25.77;;;19.17;;
11048;SDS011;5577;42.706;23.160;2023-02-15T14:35:36;25.30;;;19.00;;
11048;SDS011;5577;42.706;23.160;2023-02-15T14:38:43;25.17;;;19.33;;
11048;SDS011;5577;42.706;23.160;2023-02-15T14:41:47;28.07;;;18.53;;
11048;SDS011;5577;42.706;23.160;2023-02-15T14:44:38;27.20;;;19.57;;
11048;SDS011;5577;42.706;23.160;2023-02-15T14:47:31;29.40;;;19.37;;
11048;SDS011;5577;42.706;23.160;2023-02-15T14:50:43;27.90;;;19.67;;
11048;SDS011;5577;42.706;23.160;2023-02-15T14:53:37;27.00;;;19.33;;
11048;SDS011;5577;42.706;23.160;2023-02-15T14:56:22;28.30;;;19.83;;
11048;SDS011;5577;42.706;23.160;2023-02-15T15:01:58;31.47;;;21.83;;
11048;SDS011;5577;42.706;23.160;2023-02-15T15:07:53;41.07;;;26.57;;
11048;SDS011;5577;42.706;23.160;2023-02-15T15:10:45;35.57;;;24.57;;
11048;SDS011;5577;42.706;23.160;2023-02-15T15:22:30;34.63;;;22.70;;
11048;SDS011;5577;42.706;23.160;2023-02-15T15:28:58;42.00;;;26.50;;
11048;SDS011;5577;42.706;23.160;2023-02-15T15:31:52;37.63;;;23.37;;
11048;SDS011;5577;42.706;23.160;2023-02-15T15:37:38;36.83;;;24.60;;
11048;SDS011;5577;42.706;23.160;2023-02-15T15:40:56;33.97;;;22.60;;
11048;SDS011;5577;42.706;23.160;2023-02-15T15:44:07;32.40;;;20.83;;
11048;SDS011;5577;42.706;23.160;2023-02-15T15:47:00;29.43;;;20.53;;
11048;SDS011;5577;42.706;23.160;2023-02-15T15:50:04;38.23;;;24.80;;
11048;SDS011;5577;42.706;23.160;2023-02-15T15:52:59;41.87;;;25.00;;
11048;SDS011;5577;42.706;23.160;2023-02-15T15:55:46;35.23;;;20.87;;
11048;SDS011;5577;42.706;23.160;2023-02-15T15:58:33;32.27;;;21.10;;
11048;SDS011;5577;42.706;23.160;2023-02-15T16:01:23;34.63;;;21.80;;
11048;SDS011;5577;42.706;23.160;2023-02-15T16:04:12;33.70;;;22.73;;
11048;SDS011;5577;42.706;23.160;2023-02-15T16:12:47;35.10;;;23.77;;
11048;SDS011;5577;42.706;23.160;2023-02-15T16:15:46;39.63;;;24.03;;
11048;SDS011;5577;42.706;23.160;2023-02-15T16:18:33;36.93;;;23.73;;
11048;SDS011;5577;42.706;23.160;2023-02-15T16:21:23;38.90;;;24.17;;
11048;SDS011;5577;42.706;23.160;2023-02-15T16:24:22;44.13;;;28.13;;
11048;SDS011;5577;42.706;23.160;2023-02-15T16:29:58;41.93;;;27.07;;
11048;SDS011;5577;42.706;23.160;2023-02-15T16:32:42;34.70;;;22.20;;
11048;SDS011;5577;42.706;23.160;2023-02-15T16:35:26;33.97;;;22.43;;
11048;SDS011;5577;42.706;23.160;2023-02-15T16:38:10;37.33;;;23.83;;
11048;SDS011;5577;42.706;23.160;2023-02-15T16:40:55;35.40;;;23.53;;
11048;SDS011;5577;42.706;23.160;2023-02-15T16:43:42;36.67;;;24.17;;
11048;SDS011;5577;42.706;23.160;2023-02-15T16:46:33;40.27;;;26.70;;
11048;SDS011;5577;42.706;23.160;2023-02-15T16:49:25;46.17;;;27.17;;
11048;SDS011;5577;42.706;23.160;2023-02-15T16:52:13;61.83;;;32.77;;
11048;SDS011;5577;42.706;23.160;2023-02-15T16:55:04;42.13;;;25.00;;
11048;SDS011;5577;42.706;23.160;2023-02-15T16:57:50;43.23;;;26.33;;
11048;SDS011;5577;42.706;23.160;2023-02-15T17:00:39;36.50;;;22.40;;
11048;SDS011;5577;42.706;23.160;2023-02-15T17:03:27;36.33;;;23.53;;
11048;SDS011;5577;42.706;23.160;2023-02-15T17:06:21;39.40;;;24.23;;
11048;SDS011;5577;42.706;23.160;2023-02-15T17:09:16;35.97;;;22.53;;
11048;SDS011;5577;42.706;23.160;2023-02-15T17:12:08;39.73;;;23.87;;
11048;SDS011;5577;42.706;23.160;2023-02-15T17:14:54;42.23;;;26.03;;
11048;SDS011;5577;42.706;23.160;2023-02-15T17:17:38;46.57;;;27.53;;
11048;SDS011;5577;42.706;23.160;2023-02-15T17:20:22;37.40;;;23.77;;
11048;SDS011;5577;42.706;23.160;2023-02-15T17:26:14;45.40;;;26.73;;
11048;SDS011;5577;42.706;23.160;2023-02-15T17:29:19;41.40;;;25.93;;
11048;SDS011;5577;42.706;23.160;2023-02-15T17:32:18;42.83;;;24.67;;
11048;SDS011;5577;42.706;23.160;2023-02-15T17:35:06;47.87;;;28.57;;
11048;SDS011;5577;42.706;23.160;2023-02-15T17:38:00;45.50;;;29.10;;
11048;SDS011;5577;42.706;23.160;2023-02-15T17:40:46;49.63;;;28.87;;
11048;SDS011;5577;42.706;23.160;2023-02-15T17:43:31;40.53;;;25.13;;
11048;SDS011;5577;42.706;23.160;2023-02-15T17:46:15;37.93;;;22.27;;
11048;SDS011;5577;42.706;23.160;2023-02-15T17:49:05;42.80;;;25.30;;
11048;SDS011;5577;42.706;23.160;2023-02-15T17:51:50;35.20;;;22.07;;
11048;SDS011;5577;42.706;23.160;2023-02-15T17:54:34;34.20;;;21.23;;
11048;SDS011;5577;42.706;23.160;2023-02-15T17:57:37;35.33;;;20.60;;
11048;SDS011;5577;42.706;23.160;2023-02-15T18:00:21;34.63;;;22.13;;
11048;SDS011;5577;42.706;23.160;2023-02-15T18:03:25;32.57;;;19.07;;
11048;SDS011;5577;42.706;23.160;2023-02-15T18:06:43;33.53;;;20.90;;
11048;SDS011;5577;42.706;23.160;2023-02-15T18:09:46;30.47;;;18.27;;
11048;SDS011;5577;42.706;23.160;2023-02-15T18:12:48;31.00;;;18.00;;
11048;SDS011;5577;42.706;23.160;2023-02-15T18:15:34;29.10;;;18.00;;
11048;SDS011;5577;42.706;23.160;2023-02-15T18:18:18;27.93;;;18.57;;
11048;SDS011;5577;42.706;23.160;2023-02-15T18:21:03;32.50;;;20.60;;
11048;SDS011;5577;42.706;23.160;2023-02-15T18:23:47;30.80;;;20.87;;
11048;SDS011;5577;42.706;23.160;2023-02-15T18:26:31;32.07;;;20.40;;
11048;SDS011;5577;42.706;23.160;2023-02-15T18:29:15;30.97;;;20.90;;
11048;SDS011;5577;42.706;23.160;2023-02-15T18:31:59;35.50;;;22.53;;
11048;SDS011;5577;42.706;23.160;2023-02-15T18:34:44;29.97;;;19.33;;
11048;SDS011;5577;42.706;23.160;2023-02-15T18:37:31;38.03;;;24.87;;
11048;SDS011;5577;42.706;23.160;2023-02-15T18:40:19;32.37;;;21.17;;
11048;SDS011;5577;42.706;23.160;2023-02-15T18:43:07;33.63;;;22.17;;
11048;SDS011;5577;42.706;23.160;2023-02-15T18:45:55;35.67;;;22.53;;
11048;SDS011;5577;42.706;23.160;2023-02-15T18:48:39;39.17;;;24.03;;
11048;SDS011;5577;42.706;23.160;2023-02-15T18:51:23;33.13;;;22.57;;
11048;SDS011;5577;42.706;23.160;2023-02-15T18:54:17;33.03;;;21.73;;
11048;SDS011;5577;42.706;23.160;2023-02-15T18:57:04;33.10;;;21.03;;
11048;SDS011;5577;42.706;23.160;2023-02-15T18:59:48;33.70;;;21.93;;
11048;SDS011;5577;42.706;23.160;2023-02-15T19:02:32;36.03;;;23.53;;